South Teddington, United Kingdom
Current Conditions -  °F | °C
As of 12:20 PM on Saturday 25 Oct 2014 (Local Time) from EGLL Reporting Station
Broken Clouds Broken Clouds  
Wind Chill: 57°   Ceiling: 4500
Heat Index: 57°   Visibility: 6mi
Dew Point: 45°   Wind: 12mph
Humidity: 63%   Direction: 240°WSW
Pressure: 30.09"   Gusts: NA
Location:  51.43°N, 0.45°W
Report Text: EGLL 251120Z 24010KT 9999 FEW028 BKN045 14/07 Q1019 NOSIG
Loading
Personal Weather Stations






























Interactive Weather Map
Tropical Storm Tracking
New forecast layout! Learn more

10-Day Weather Forecast

Advertisements
Track Severe Weather on mobile